createdAt,value
2022-08-31T00:00:09.731Z,100352.00
2022-08-31T00:02:54.991Z,100355.81
2022-08-31T00:05:21.726Z,100345.34
2022-08-31T00:07:48.151Z,100350.03
2022-08-31T00:10:15.932Z,100351.13
2022-08-31T00:12:43.701Z,100363.91
2022-08-31T00:15:12.855Z,100354.31
2022-08-31T00:17:39.696Z,100356.78
2022-08-31T00:20:08.410Z,100358.97
2022-08-31T00:22:54.988Z,100348.03
2022-08-31T00:25:24.017Z,100352.94
2022-08-31T00:27:50.463Z,100356.69
2022-08-31T00:30:16.891Z,100345.50
2022-08-31T00:32:43.301Z,100347.09
2022-08-31T00:35:09.718Z,100348.44
2022-08-31T00:37:36.256Z,100343.19
2022-08-31T00:40:03.786Z,100344.63
2022-08-31T00:42:30.338Z,100339.41
2022-08-31T00:44:56.735Z,100338.34
2022-08-31T00:47:23.205Z,100340.69
2022-08-31T00:49:51.405Z,100336.13
2022-08-31T00:52:39.998Z,100331.28
2022-08-31T00:55:26.695Z,100336.84
2022-08-31T00:57:55.922Z,100343.66
2022-08-31T01:00:26.176Z,100337.78
2022-08-31T01:02:54.191Z,100341.59
2022-08-31T01:05:21.094Z,100350.75
2022-08-31T01:07:49.610Z,100345.84
2022-08-31T01:10:19.381Z,100352.38
2022-08-31T01:12:47.821Z,100357.59
2022-08-31T01:15:17.361Z,100363.81
2022-08-31T01:17:48.272Z,100356.38
2022-08-31T01:20:24.702Z,100360.88
2022-08-31T01:23:12.821Z,100357.19
2022-08-31T01:25:42.905Z,100364.50
2022-08-31T01:28:11.019Z,100355.41
2022-08-31T01:30:38.489Z,100352.47
2022-08-31T01:33:05.343Z,100357.44
2022-08-31T01:35:33.769Z,100357.06
2022-08-31T01:38:01.392Z,100364.75
2022-08-31T01:40:37.397Z,100367.91
2022-08-31T01:43:04.088Z,100364.00
2022-08-31T01:45:30.547Z,100366.75
2022-08-31T01:47:59.792Z,100375.31
2022-08-31T01:50:26.271Z,100378.38
2022-08-31T01:52:52.678Z,100371.25
2022-08-31T01:55:19.201Z,100385.22
2022-08-31T01:57:45.587Z,100383.66
2022-08-31T02:00:12.571Z,100388.47
2022-08-31T02:02:39.198Z,100391.50
2022-08-31T02:05:08.979Z,100395.94
2022-08-31T02:07:35.485Z,100400.63
2022-08-31T02:10:01.893Z,100404.16
2022-08-31T02:12:28.294Z,100397.59
2022-08-31T02:14:54.725Z,100394.59
2022-08-31T02:17:21.133Z,100395.63
2022-08-31T02:19:47.556Z,100405.19
2022-08-31T02:22:14.139Z,100394.00
2022-08-31T02:24:40.613Z,100403.03
2022-08-31T02:27:07.060Z,100401.91
2022-08-31T02:29:33.672Z,100398.63
2022-08-31T02:32:00.157Z,100405.78
2022-08-31T02:34:26.692Z,100406.69
2022-08-31T02:36:53.121Z,100406.59
2022-08-31T02:39:19.681Z,100406.50
2022-08-31T02:41:46.895Z,100404.88
2022-08-31T02:44:13.573Z,100409.66
2022-08-31T02:46:40.492Z,100415.09
2022-08-31T02:49:06.976Z,100408.44
2022-08-31T02:51:33.388Z,100409.78
2022-08-31T02:53:59.813Z,100413.91
2022-08-31T02:56:26.333Z,100409.31
2022-08-31T02:58:54.978Z,100414.84
2022-08-31T03:01:23.421Z,100405.31
2022-08-31T03:03:50.482Z,100407.03
2022-08-31T03:06:19.011Z,100403.31
2022-08-31T03:08:46.283Z,100403.19
2022-08-31T03:11:13.215Z,100402.16
2022-08-31T03:13:40.433Z,100396.25
2022-08-31T03:16:07.396Z,100407.63
2022-08-31T03:18:34.043Z,100415.47
2022-08-31T03:21:00.483Z,100412.38
2022-08-31T03:23:26.957Z,100410.53
2022-08-31T03:25:53.596Z,100408.63
2022-08-31T03:28:20.091Z,100411.88
2022-08-31T03:30:46.755Z,100410.38
2022-08-31T03:33:13.338Z,100405.31
2022-08-31T03:35:44.218Z,100407.50
2022-08-31T03:38:12.932Z,100407.53
2022-08-31T03:40:44.130Z,100415.84
2022-08-31T03:43:12.021Z,100415.31
2022-08-31T03:45:40.369Z,100410.38
2022-08-31T03:48:11.549Z,100425.81
2022-08-31T03:50:39.267Z,100419.41
2022-08-31T03:53:07.365Z,100421.31
2022-08-31T03:55:35.560Z,100426.31
2022-08-31T03:58:01.985Z,100423.63
2022-08-31T04:00:29.534Z,100425.69
2022-08-31T04:02:59.508Z,100428.28
2022-08-31T04:05:27.596Z,100432.53
2022-08-31T04:07:54.761Z,100435.06
2022-08-31T04:10:22.925Z,100439.41
2022-08-31T04:12:50.555Z,100431.97
2022-08-31T04:15:18.269Z,100441.16
2022-08-31T04:17:47.438Z,100432.47
2022-08-31T04:20:14.473Z,100436.66
2022-08-31T04:22:40.949Z,100443.84
2022-08-31T04:25:10.115Z,100441.19
2022-08-31T04:27:38.149Z,100442.78
2022-08-31T04:30:07.564Z,100443.91
2022-08-31T04:32:35.135Z,100439.06
2022-08-31T04:35:04.657Z,100446.75
2022-08-31T04:37:31.235Z,100447.66
2022-08-31T04:39:59.296Z,100455.72
2022-08-31T04:42:30.083Z,100460.94
2022-08-31T04:44:56.608Z,100457.72
2022-08-31T04:47:23.029Z,100455.34
2022-08-31T04:49:49.541Z,100460.56
2022-08-31T04:52:15.953Z,100459.91
2022-08-31T04:54:42.434Z,100462.38
2022-08-31T04:57:08.884Z,100461.91
2022-08-31T04:59:35.368Z,100474.44
2022-08-31T05:02:03.889Z,100477.25
2022-08-31T05:04:31.763Z,100479.09
2022-08-31T05:06:58.254Z,100481.25
2022-08-31T05:09:24.650Z,100486.34
2022-08-31T05:11:52.841Z,100486.66
2022-08-31T05:14:21.962Z,100482.66
2022-08-31T05:16:48.774Z,100488.19
2022-08-31T05:19:15.233Z,100489.91
2022-08-31T05:21:43.525Z,100495.91
2022-08-31T05:24:22.499Z,100490.09
2022-08-31T05:26:51.980Z,100495.81
2022-08-31T05:29:21.727Z,100492.28
2022-08-31T05:31:52.283Z,100492.28
2022-08-31T05:34:20.709Z,100494.13
2022-08-31T05:36:52.395Z,100498.34
2022-08-31T05:39:19.531Z,100497.31
2022-08-31T05:41:47.521Z,100500.19
2022-08-31T05:44:15.599Z,100504.16
2022-08-31T05:46:42.393Z,100496.00
2022-08-31T05:49:10.825Z,100497.56
2022-08-31T05:51:38.886Z,100503.88
2022-08-31T05:54:06.334Z,100506.03
2022-08-31T05:56:32.813Z,100513.78
2022-08-31T05:58:59.313Z,100506.25
2022-08-31T06:01:34.333Z,100509.66
2022-08-31T06:04:01.584Z,100506.69
2022-08-31T06:06:28.327Z,100517.31
2022-08-31T06:08:55.731Z,100505.22
2022-08-31T06:11:25.698Z,100506.00
2022-08-31T06:13:54.830Z,100497.28
2022-08-31T06:16:22.984Z,100507.28
2022-08-31T06:18:53.567Z,100510.63
2022-08-31T06:21:31.943Z,100509.41
2022-08-31T06:23:59.313Z,100508.47
2022-08-31T06:26:28.584Z,100513.59
2022-08-31T06:28:57.794Z,100507.03
2022-08-31T06:31:29.754Z,100511.19
2022-08-31T06:33:57.172Z,100507.78
2022-08-31T06:36:26.382Z,100518.03
2022-08-31T06:38:56.440Z,100515.34
2022-08-31T06:41:30.424Z,100518.47
2022-08-31T06:44:01.771Z,100519.16
2022-08-31T06:46:29.650Z,100523.88
2022-08-31T06:48:57.308Z,100523.72
2022-08-31T06:51:24.996Z,100533.28
2022-08-31T06:53:52.296Z,100526.91
2022-08-31T06:56:21.783Z,100533.47
2022-08-31T06:58:53.733Z,100537.28
2022-08-31T07:01:35.202Z,100541.81
2022-08-31T07:04:05.819Z,100543.50
2022-08-31T07:06:36.446Z,100544.84
2022-08-31T07:09:06.348Z,100547.44
2022-08-31T07:11:44.327Z,100559.56
2022-08-31T07:14:13.722Z,100553.56
2022-08-31T07:16:41.210Z,100560.53
2022-08-31T07:19:08.247Z,100555.91
2022-08-31T07:21:40.432Z,100563.53
2022-08-31T07:24:07.263Z,100562.72
2022-08-31T07:26:40.689Z,100561.09
2022-08-31T07:29:08.118Z,100571.59
2022-08-31T07:31:56.182Z,100577.69
2022-08-31T07:34:25.874Z,100575.84
2022-08-31T07:37:16.545Z,100585.00
2022-08-31T07:40:07.077Z,100580.00
2022-08-31T07:42:39.846Z,100580.88
2022-08-31T07:45:12.834Z,100578.97
2022-08-31T07:47:45.187Z,100581.09
2022-08-31T07:50:13.132Z,100587.44
2022-08-31T07:52:48.514Z,100581.00
2022-08-31T07:55:17.714Z,100580.38
2022-08-31T07:57:45.215Z,100582.50
2022-08-31T08:00:20.799Z,100579.72
2022-08-31T08:02:50.785Z,100583.38
2022-08-31T08:05:24.444Z,100584.25
2022-08-31T08:07:56.156Z,100591.69
2022-08-31T08:10:24.136Z,100590.41
2022-08-31T08:12:57.028Z,100597.06
2022-08-31T08:15:26.621Z,100585.19
2022-08-31T08:17:53.091Z,100604.88
2022-08-31T08:20:34.483Z,100591.16
2022-08-31T08:23:13.882Z,100605.75
2022-08-31T08:25:43.229Z,100606.69
2022-08-31T08:28:37.703Z,100601.78
2022-08-31T08:31:04.252Z,100609.81
2022-08-31T08:33:32.767Z,100617.88
2022-08-31T08:36:03.527Z,100618.25
2022-08-31T08:38:31.184Z,100613.34
2022-08-31T08:41:00.553Z,100612.59
2022-08-31T08:43:36.678Z,100622.03
2022-08-31T08:46:20.185Z,100616.44
2022-08-31T08:48:54.649Z,100617.81
2022-08-31T08:51:31.030Z,100628.59
2022-08-31T08:54:03.103Z,100630.34
2022-08-31T08:56:33.745Z,100632.06
2022-08-31T08:59:00.860Z,100640.94
2022-08-31T09:01:28.952Z,100633.50
2022-08-31T09:04:24.617Z,100642.47
2022-08-31T09:07:04.860Z,100636.91
2022-08-31T09:10:01.452Z,100641.81
2022-08-31T09:12:35.267Z,100643.38
2022-08-31T09:15:36.489Z,100650.41
2022-08-31T09:18:06.107Z,100646.72
2022-08-31T09:20:33.687Z,100651.09
2022-08-31T09:23:00.904Z,100650.38
2022-08-31T09:25:35.904Z,100654.19
2022-08-31T09:28:07.894Z,100647.31
2022-08-31T09:30:54.975Z,100652.34
2022-08-31T09:33:30.181Z,100651.63
2022-08-31T09:36:15.778Z,100656.19
2022-08-31T09:38:46.849Z,100650.00
2022-08-31T09:41:33.189Z,100652.25
2022-08-31T09:44:21.349Z,100651.53
2022-08-31T09:46:51.004Z,100656.38
2022-08-31T09:49:34.335Z,100652.34
2022-08-31T09:52:42.259Z,100649.25
2022-08-31T09:55:13.362Z,100662.06
2022-08-31T09:57:53.997Z,100658.88
2022-08-31T10:00:33.123Z,100652.03
2022-08-31T10:03:22.033Z,100651.75
2022-08-31T10:05:51.914Z,100659.16
2022-08-31T10:08:57.921Z,100652.50
2022-08-31T10:11:29.597Z,100649.25
2022-08-31T10:14:04.535Z,100650.41
2022-08-31T10:16:41.667Z,100659.59
2022-08-31T10:19:17.660Z,100655.19
2022-08-31T10:21:52.273Z,100658.88
2022-08-31T10:24:39.179Z,100654.25
2022-08-31T10:27:08.692Z,100651.66
2022-08-31T10:29:40.143Z,100651.50
2022-08-31T10:32:20.177Z,100661.56
2022-08-31T10:35:05.762Z,100655.97
2022-08-31T10:38:10.925Z,100650.56
2022-08-31T10:40:47.244Z,100650.00
2022-08-31T10:43:21.537Z,100650.88
2022-08-31T10:45:51.758Z,100646.63
2022-08-31T10:48:24.613Z,100650.00
2022-08-31T10:51:13.178Z,100651.91
2022-08-31T10:53:59.807Z,100658.50
2022-08-31T10:56:59.237Z,100651.44
2022-08-31T10:59:30.087Z,100659.41
2022-08-31T11:02:25.531Z,100656.25
2022-08-31T11:05:14.277Z,100659.69
2022-08-31T11:07:50.548Z,100656.00
2022-08-31T11:10:29.608Z,100660.59
2022-08-31T11:13:02.741Z,100662.03
2022-08-31T11:15:34.918Z,100664.25
2022-08-31T11:18:43.924Z,100659.53
2022-08-31T11:21:25.161Z,100655.50
2022-08-31T11:24:09.620Z,100648.56
2022-08-31T11:27:00.950Z,100647.66
2022-08-31T11:29:36.401Z,100647.47
2022-08-31T11:32:11.105Z,100652.94
2022-08-31T11:34:47.313Z,100647.63
2022-08-31T11:37:55.904Z,100640.25
2022-08-31T11:40:43.889Z,100647.16
2022-08-31T11:43:32.407Z,100642.00
2022-08-31T11:46:28.415Z,100635.38
2022-08-31T11:48:55.059Z,100633.72
2022-08-31T11:51:41.469Z,100627.75
2022-08-31T11:54:26.239Z,100637.38
2022-08-31T11:56:56.727Z,100637.47
2022-08-31T11:59:35.407Z,100629.47
2022-08-31T12:02:20.154Z,100632.50
2022-08-31T12:04:47.450Z,100626.69
2022-08-31T12:07:28.438Z,100629.63
2022-08-31T12:10:07.043Z,100631.09
2022-08-31T12:12:44.533Z,100641.03
2022-08-31T12:15:32.235Z,100638.63
2022-08-31T12:18:09.491Z,100634.94
2022-08-31T12:21:12.735Z,100631.28
2022-08-31T12:24:08.543Z,100626.16
2022-08-31T12:26:59.467Z,100625.66
2022-08-31T12:29:27.803Z,100621.31
2022-08-31T12:32:17.899Z,100628.44
2022-08-31T12:34:54.946Z,100624.25
2022-08-31T12:37:30.694Z,100631.97
2022-08-31T12:40:10.153Z,100626.31
2022-08-31T12:43:00.084Z,100624.91
2022-08-31T12:46:01.337Z,100628.03
2022-08-31T12:48:30.538Z,100619.03
2022-08-31T12:51:07.694Z,100620.88
2022-08-31T12:53:34.069Z,100614.63
2022-08-31T12:56:30.309Z,100614.94
2022-08-31T12:59:15.967Z,100611.50
2022-08-31T13:01:48.121Z,100612.97
2022-08-31T13:04:21.218Z,100605.94
2022-08-31T13:06:50.492Z,100606.00
2022-08-31T13:09:31.529Z,100598.00
2022-08-31T13:12:00.633Z,100596.34
2022-08-31T13:14:30.662Z,100593.00
2022-08-31T13:17:07.203Z,100576.66
2022-08-31T13:19:36.128Z,100579.78
2022-08-31T13:22:06.121Z,100584.03
2022-08-31T13:24:41.115Z,100573.47
2022-08-31T13:27:19.629Z,100570.19
2022-08-31T13:29:47.609Z,100578.19
2022-08-31T13:32:33.266Z,100568.44
2022-08-31T13:35:04.219Z,100569.38
2022-08-31T13:37:37.977Z,100569.50
2022-08-31T13:40:16.676Z,100565.44
2022-08-31T13:42:46.773Z,100561.66
2022-08-31T13:45:27.257Z,100559.22
2022-08-31T13:47:57.897Z,100559.47
2022-08-31T13:50:52.563Z,100558.00
2022-08-31T13:53:42.507Z,100554.75
2022-08-31T13:56:46.394Z,100553.41
2022-08-31T13:59:29.139Z,100552.44
2022-08-31T14:02:00.007Z,100544.13
2022-08-31T14:04:48.607Z,100544.28
2022-08-31T14:07:43.780Z,100543.00
2022-08-31T14:10:14.935Z,100542.66
2022-08-31T14:13:00.908Z,100539.69
2022-08-31T14:15:38.620Z,100545.38
2022-08-31T14:18:25.987Z,100541.53
2022-08-31T14:21:26.635Z,100538.19
2022-08-31T14:24:04.662Z,100535.75
2022-08-31T14:26:42.300Z,100537.34
2022-08-31T14:29:13.866Z,100526.31
2022-08-31T14:31:51.835Z,100530.03
2022-08-31T14:34:32.131Z,100527.22
2022-08-31T14:37:11.307Z,100509.47
2022-08-31T14:39:48.000Z,100507.84
2022-08-31T14:42:18.691Z,100506.44
2022-08-31T14:44:56.481Z,100510.16
2022-08-31T14:47:25.023Z,100502.16
2022-08-31T14:49:52.015Z,100511.41
2022-08-31T14:52:18.534Z,100504.06
2022-08-31T14:54:45.966Z,100505.31
2022-08-31T14:57:25.097Z,100500.53
2022-08-31T14:59:57.653Z,100502.22
2022-08-31T15:02:28.586Z,100509.00
2022-08-31T15:05:04.523Z,100512.63
2022-08-31T15:07:32.128Z,100508.03
2022-08-31T15:09:59.183Z,100503.59
2022-08-31T15:12:25.625Z,100507.03
2022-08-31T15:14:58.141Z,100500.03
2022-08-31T15:17:24.919Z,100500.16
2022-08-31T15:19:53.046Z,100490.66
2022-08-31T15:22:19.569Z,100497.47
2022-08-31T15:24:46.139Z,100494.44
2022-08-31T15:27:15.293Z,100506.59
2022-08-31T15:29:43.508Z,100489.38
2022-08-31T15:32:10.363Z,100495.97
2022-08-31T15:34:38.005Z,100503.25
2022-08-31T15:37:06.972Z,100490.41
2022-08-31T15:39:43.340Z,100477.69
2022-08-31T15:42:11.125Z,100476.16
2022-08-31T15:44:40.392Z,100471.34
2022-08-31T15:47:27.909Z,100475.47
2022-08-31T15:49:56.119Z,100472.41
2022-08-31T15:55:11.854Z,100464.78
2022-08-31T15:57:40.929Z,100465.69
2022-08-31T16:00:12.215Z,100461.88
2022-08-31T16:02:38.655Z,100465.34
2022-08-31T16:05:06.572Z,100470.84
2022-08-31T16:07:34.767Z,100459.06
2022-08-31T16:10:02.877Z,100460.81
2022-08-31T16:12:29.392Z,100456.38
2022-08-31T16:14:55.830Z,100451.94
2022-08-31T16:17:22.218Z,100462.09
2022-08-31T16:19:49.401Z,100457.88
2022-08-31T16:22:17.145Z,100452.78
2022-08-31T16:24:44.592Z,100452.06
2022-08-31T16:27:16.550Z,100452.66
2022-08-31T16:29:43.612Z,100443.41
2022-08-31T16:32:10.134Z,100445.59
2022-08-31T16:34:39.153Z,100444.78
2022-08-31T16:37:07.659Z,100440.91
2022-08-31T16:39:40.334Z,100441.94
2022-08-31T16:42:08.694Z,100436.88
2022-08-31T16:44:36.675Z,100440.56
2022-08-31T16:47:04.973Z,100430.09
2022-08-31T16:49:35.766Z,100428.75
2022-08-31T16:52:04.424Z,100428.19
2022-08-31T16:54:30.963Z,100437.94
2022-08-31T16:56:57.724Z,100437.50
2022-08-31T16:59:28.938Z,100440.56
2022-08-31T17:01:56.208Z,100446.00
2022-08-31T17:04:48.163Z,100441.56
2022-08-31T17:07:12.326Z,100450.63
2022-08-31T17:09:39.709Z,100447.41
2022-08-31T17:12:09.523Z,100446.66
2022-08-31T17:14:43.502Z,100443.06
2022-08-31T17:17:13.373Z,100445.31
2022-08-31T17:19:42.038Z,100449.66
2022-08-31T17:22:16.992Z,100446.94
2022-08-31T17:24:46.206Z,100450.69
2022-08-31T17:27:19.596Z,100451.78
2022-08-31T17:29:50.956Z,100452.63
2022-08-31T17:32:20.781Z,100458.38
2022-08-31T17:34:51.669Z,100455.06
2022-08-31T17:37:23.977Z,100457.94
2022-08-31T17:39:52.799Z,100458.53
2022-08-31T17:42:26.652Z,100457.47
2022-08-31T17:44:54.302Z,100456.25
2022-08-31T17:47:22.757Z,100465.88
2022-08-31T17:49:52.540Z,100463.59
2022-08-31T17:52:23.617Z,100469.31
2022-08-31T17:54:53.660Z,100471.81
2022-08-31T17:57:24.734Z,100475.97
2022-08-31T17:59:52.657Z,100474.72
2022-08-31T18:02:32.508Z,100475.25
2022-08-31T18:05:00.333Z,100473.13
2022-08-31T18:07:27.601Z,100478.59
2022-08-31T18:09:54.073Z,100478.72
2022-08-31T18:12:25.437Z,100492.16
2022-08-31T18:14:53.650Z,100489.88
2022-08-31T18:17:22.248Z,100493.72
2022-08-31T18:19:49.045Z,100498.06
2022-08-31T18:22:15.612Z,100496.25
2022-08-31T18:24:42.739Z,100496.38
2022-08-31T18:27:11.534Z,100493.69
2022-08-31T18:29:38.504Z,100497.69
2022-08-31T18:32:07.603Z,100500.22
2022-08-31T18:34:38.942Z,100495.97
2022-08-31T18:37:06.873Z,100505.41
2022-08-31T18:39:59.631Z,100511.38
2022-08-31T18:42:45.898Z,100510.19
2022-08-31T18:45:20.967Z,100518.25
2022-08-31T18:48:20.747Z,100517.56
2022-08-31T18:50:47.261Z,100520.81
2022-08-31T18:53:28.638Z,100513.16
2022-08-31T18:55:56.518Z,100517.16
2022-08-31T18:58:22.992Z,100518.13
2022-08-31T19:00:57.559Z,100529.28
2022-08-31T19:03:25.601Z,100533.72
2022-08-31T19:05:52.037Z,100525.38
2022-08-31T19:08:19.266Z,100526.47
2022-08-31T19:10:46.747Z,100524.22
2022-08-31T19:13:15.847Z,100527.38
2022-08-31T19:15:42.348Z,100521.22
2022-08-31T19:18:08.781Z,100522.63
2022-08-31T19:20:35.559Z,100519.88
2022-08-31T19:23:02.614Z,100521.41
2022-08-31T19:25:29.234Z,100522.78
2022-08-31T19:27:55.983Z,100520.66
2022-08-31T19:30:27.859Z,100518.81
2022-08-31T19:32:56.050Z,100526.59
2022-08-31T19:35:22.890Z,100525.38
2022-08-31T19:37:51.883Z,100527.31
2022-08-31T19:40:19.227Z,100522.09
2022-08-31T19:45:43.723Z,100527.06
2022-08-31T19:48:13.038Z,100523.78
2022-08-31T19:50:42.112Z,100518.16
2022-08-31T19:53:13.727Z,100528.31
2022-08-31T19:55:51.193Z,100521.91
2022-08-31T19:58:19.775Z,100522.47
2022-08-31T20:00:48.373Z,100532.09
2022-08-31T20:03:15.944Z,100531.44
2022-08-31T20:05:43.230Z,100528.00
2022-08-31T20:08:10.315Z,100527.25
2022-08-31T20:10:44.757Z,100528.78
2022-08-31T20:13:12.407Z,100529.50
2022-08-31T20:15:41.457Z,100530.28
2022-08-31T20:18:11.086Z,100528.66
2022-08-31T20:20:46.097Z,100523.00
2022-08-31T20:23:16.495Z,100517.72
2022-08-31T20:25:45.554Z,100525.41
2022-08-31T20:28:12.466Z,100520.19
2022-08-31T20:30:41.154Z,100526.28
2022-08-31T20:33:08.113Z,100528.94
2022-08-31T20:35:36.377Z,100519.44
2022-08-31T20:38:02.866Z,100522.31
2022-08-31T20:40:29.407Z,100515.66
2022-08-31T20:42:56.572Z,100525.47
2022-08-31T20:45:23.225Z,100516.66
2022-08-31T20:48:08.001Z,100514.75
2022-08-31T20:50:35.920Z,100515.56
2022-08-31T20:53:02.988Z,100517.97
2022-08-31T20:55:29.524Z,100515.34
2022-08-31T20:57:56.005Z,100517.28
2022-08-31T21:00:24.662Z,100526.63
2022-08-31T21:02:51.977Z,100517.69
2022-08-31T21:08:05.522Z,100521.94
2022-08-31T21:10:36.633Z,100529.66
2022-08-31T21:13:06.953Z,100516.16
2022-08-31T21:15:33.368Z,100522.03
2022-08-31T21:17:59.770Z,100527.09
2022-08-31T21:20:26.438Z,100519.16
2022-08-31T21:22:53.368Z,100532.06
2022-08-31T21:25:20.216Z,100528.81
2022-08-31T21:27:46.964Z,100543.38
2022-08-31T21:30:13.608Z,100535.78
2022-08-31T21:32:43.031Z,100530.06
2022-08-31T21:35:12.046Z,100521.78
2022-08-31T21:37:38.545Z,100523.91
2022-08-31T21:40:06.124Z,100525.06
2022-08-31T21:42:32.660Z,100524.56
2022-08-31T21:44:59.058Z,100526.03
2022-08-31T21:47:26.131Z,100521.69
2022-08-31T21:49:53.364Z,100520.53
2022-08-31T21:52:20.053Z,100514.72
2022-08-31T21:54:47.983Z,100528.84
2022-08-31T21:57:15.602Z,100525.94
2022-08-31T21:59:42.395Z,100526.94
2022-08-31T22:02:11.147Z,100521.22
2022-08-31T22:04:44.038Z,100525.44
2022-08-31T22:07:11.784Z,100525.28
2022-08-31T22:09:38.393Z,100525.00
2022-08-31T22:12:07.319Z,100528.75
2022-08-31T22:14:38.951Z,100528.09
2022-08-31T22:17:06.868Z,100536.00
2022-08-31T22:19:38.953Z,100534.06
2022-08-31T22:22:09.184Z,100545.31
2022-08-31T22:24:41.171Z,100538.69
2022-08-31T22:27:09.777Z,100536.25
2022-08-31T22:29:37.772Z,100546.06
2022-08-31T22:32:11.946Z,100540.56
2022-08-31T22:34:41.945Z,100546.94
2022-08-31T22:37:11.125Z,100541.47
2022-08-31T22:39:38.739Z,100539.25
2022-08-31T22:42:05.515Z,100542.44
2022-08-31T22:44:34.399Z,100541.09
2022-08-31T22:47:02.143Z,100540.06
2022-08-31T22:49:28.989Z,100543.13
2022-08-31T22:51:56.827Z,100544.19
2022-08-31T22:54:23.729Z,100541.09
2022-08-31T22:56:50.845Z,100540.63
2022-08-31T22:59:26.885Z,100546.88
2022-08-31T23:01:57.065Z,100532.94
2022-08-31T23:04:26.204Z,100539.25
2022-08-31T23:06:53.214Z,100538.19
2022-08-31T23:09:21.553Z,100543.00
2022-08-31T23:11:51.335Z,100551.19
2022-08-31T23:14:20.945Z,100542.06
2022-08-31T23:16:55.082Z,100551.31
2022-08-31T23:19:26.222Z,100546.47
2022-08-31T23:21:56.646Z,100548.00
2022-08-31T23:24:31.310Z,100550.03
2022-08-31T23:27:04.284Z,100549.19
2022-08-31T23:29:41.790Z,100544.09
2022-08-31T23:32:11.923Z,100547.69
2022-08-31T23:34:39.313Z,100544.75
2022-08-31T23:37:10.205Z,100545.97
2022-08-31T23:39:40.210Z,100534.53
2022-08-31T23:42:08.965Z,100541.38
2022-08-31T23:44:36.074Z,100542.75
2022-08-31T23:47:02.765Z,100538.41
2022-08-31T23:49:29.271Z,100538.44
2022-08-31T23:51:55.690Z,100539.84
2022-08-31T23:54:23.295Z,100536.97
2022-08-31T23:56:52.034Z,100533.03
2022-08-31T23:59:19.789Z,100532.44
